Time;durP1;ratioP1;P1;durP2;ratioP2;P2;SDS_P1;SDS_P2;PMS_P1;PMS_P2;Temp;Humidity;BMP_temperature;BMP_pressure;BME280_temperature;BME280_humidity;BME280_pressure;Samples;Min_cycle;Max_cycle;Signal;HPM_P1;HPM_P2
2022/08/19 00:00:35;;;;;;;3.78;3.47;;;21.00;77.00;;;;;;5031282;28;20021;-32
2022/08/19 00:03:01;;;;;;;3.30;3.00;;;21.00;77.10;;;;;;5032888;28;20087;-25
2022/08/19 00:05:27;;;;;;;3.42;3.13;;;21.00;77.20;;;;;;5032516;28;20433;-28
2022/08/19 00:07:52;;;;;;;5.28;3.72;;;21.00;77.20;;;;;;5032542;28;20032;-25
2022/08/19 00:10:20;;;;;;;3.60;3.30;;;20.90;77.30;;;;;;5032693;28;20017;-25
2022/08/19 00:12:46;;;;;;;4.13;3.60;;;20.90;78.00;;;;;;5032640;28;20037;-26
2022/08/19 00:15:14;;;;;;;3.97;3.05;;;20.90;77.40;;;;;;5032704;28;20025;-26
2022/08/19 00:17:41;;;;;;;3.70;3.40;;;20.80;77.10;;;;;;5032375;28;20028;-25
2022/08/19 00:20:10;;;;;;;3.92;3.63;;;20.80;77.60;;;;;;5032328;28;20112;-29
2022/08/19 00:22:36;;;;;;;3.72;3.42;;;20.80;77.70;;;;;;5032722;28;20055;-27
2022/08/19 00:25:03;;;;;;;4.00;3.60;;;20.80;77.70;;;;;;5032530;28;20029;-25
2022/08/19 00:27:28;;;;;;;4.43;4.00;;;20.70;77.70;;;;;;5032482;28;20516;-26
2022/08/19 00:29:54;;;;;;;3.85;3.55;;;20.70;77.70;;;;;;5032492;28;20049;-27
2022/08/19 00:32:20;;;;;;;4.00;3.70;;;20.70;77.80;;;;;;5032452;28;20029;-25
2022/08/19 00:34:46;;;;;;;4.40;4.00;;;20.60;77.80;;;;;;5032795;28;20095;-24
2022/08/19 00:37:11;;;;;;;4.15;3.78;;;20.60;77.90;;;;;;5032249;28;20021;-25
2022/08/19 00:39:37;;;;;;;4.43;4.03;;;20.60;78.00;;;;;;5032300;28;20039;-25
2022/08/19 00:42:03;;;;;;;4.55;4.15;;;20.60;78.00;;;;;;5032311;28;20472;-25
2022/08/19 00:44:30;;;;;;;4.50;4.03;;;20.50;78.10;;;;;;5032278;28;20034;-25
2022/08/19 00:46:58;;;;;;;4.43;4.03;;;20.60;78.20;;;;;;5032195;28;20119;-24
2022/08/19 00:49:27;;;;;;;4.65;4.25;;;20.60;78.30;;;;;;5032176;28;20033;-24
2022/08/19 00:52:00;;;;;;;4.78;4.28;;;20.50;78.30;;;;;;5030777;28;20061;-24
2022/08/19 00:54:26;;;;;;;4.80;4.35;;;20.50;78.40;;;;;;5032453;28;20033;-24
2022/08/19 00:56:52;;;;;;;6.20;4.47;;;20.40;78.30;;;;;;5032262;28;20101;-24
2022/08/19 00:59:19;;;;;;;5.13;4.60;;;20.40;78.40;;;;;;5032573;28;20429;-25
2022/08/19 01:01:46;;;;;;;5.30;4.85;;;20.40;78.40;;;;;;5032376;28;20017;-26
2022/08/19 01:04:12;;;;;;;5.45;4.35;;;20.40;78.50;;;;;;5031113;28;20038;-24
2022/08/19 01:06:40;;;;;;;5.10;4.60;;;20.40;78.50;;;;;;5035757;28;20029;-25
2022/08/19 01:09:07;;;;;;;5.38;4.55;;;20.30;78.50;;;;;;5036421;28;20021;-25
2022/08/19 01:11:35;;;;;;;5.78;4.63;;;20.30;78.60;;;;;;5036076;28;20037;-25
2022/08/19 01:14:02;;;;;;;4.90;4.45;;;20.30;78.70;;;;;;5036123;28;20440;-25
2022/08/19 01:16:29;;;;;;;5.63;5.05;;;20.30;78.70;;;;;;5034663;28;20018;-25
2022/08/19 01:18:56;;;;;;;7.00;5.00;;;20.20;78.70;;;;;;5035582;28;20021;-26
2022/08/19 01:21:43;;;;;;;5.05;4.60;;;20.30;78.80;;;;;;5035776;28;20036;-25
2022/08/19 01:24:09;;;;;;;4.90;4.50;;;20.30;78.90;;;;;;5035823;28;20057;-28
2022/08/19 01:26:42;;;;;;;4.80;4.38;;;20.20;78.80;;;;;;5035851;28;20079;-26
2022/08/19 01:29:07;;;;;;;4.60;4.22;;;20.20;78.90;;;;;;5036181;28;20033;-27
2022/08/19 01:31:34;;;;;;;6.43;4.90;;;20.20;78.80;;;;;;5036036;28;20024;-26
2022/08/19 01:34:01;;;;;;;5.50;5.00;;;20.20;78.90;;;;;;5035964;28;20385;-26
2022/08/19 01:36:32;;;;;;;5.55;5.05;;;20.20;78.90;;;;;;5034109;28;20022;-26
2022/08/19 01:38:59;;;;;;;5.60;5.10;;;20.20;78.90;;;;;;5035225;28;20381;-27
2022/08/19 01:41:25;;;;;;;5.47;4.97;;;20.20;78.90;;;;;;5035204;28;20100;-26
2022/08/19 01:43:53;;;;;;;5.18;4.70;;;20.20;78.90;;;;;;5033848;28;20183;-26
2022/08/19 01:46:18;;;;;;;5.45;4.95;;;20.20;78.80;;;;;;5035256;28;20504;-26
2022/08/19 01:48:45;;;;;;;5.97;5.38;;;20.20;78.70;;;;;;5035364;28;20026;-26
2022/08/19 01:51:12;;;;;;;6.43;5.22;;;20.30;78.70;;;;;;5035026;28;20441;-26
2022/08/19 01:53:39;;;;;;;5.60;5.03;;;20.30;78.60;;;;;;5034958;28;20021;-25
2022/08/19 01:56:06;;;;;;;5.93;4.78;;;20.30;78.60;;;;;;5034931;28;20087;-25
2022/08/19 01:58:40;;;;;;;5.10;4.70;;;20.40;78.60;;;;;;5035256;28;20068;-25
2022/08/19 02:01:07;;;;;;;5.68;5.00;;;20.40;78.60;;;;;;5034936;28;20022;-25
2022/08/19 02:03:34;;;;;;;5.50;4.97;;;20.40;78.50;;;;;;5033451;28;20021;-26
2022/08/19 02:06:02;;;;;;;5.60;5.10;;;20.40;78.50;;;;;;5034543;28;20092;-26
2022/08/19 02:08:29;;;;;;;5.80;5.22;;;20.40;78.50;;;;;;5033432;28;20021;-25
2022/08/19 02:10:55;;;;;;;5.28;4.78;;;20.40;78.50;;;;;;5034754;28;20028;-28
2022/08/19 02:13:23;;;;;;;5.55;5.05;;;20.40;78.50;;;;;;5034543;28;20029;-25
2022/08/19 02:15:49;;;;;;;5.95;5.35;;;20.40;78.40;;;;;;5034407;28;20021;-25
2022/08/19 02:18:14;;;;;;;5.10;4.60;;;20.50;78.40;;;;;;5033490;28;20033;-27
2022/08/19 02:20:41;;;;;;;5.60;4.82;;;20.50;78.30;;;;;;5034399;28;20060;-29
2022/08/19 02:23:08;;;;;;;5.75;5.00;;;20.40;78.30;;;;;;5034440;28;20435;-25
2022/08/19 02:25:34;;;;;;;5.18;4.78;;;20.40;78.20;;;;;;5034519;28;20017;-27
2022/08/19 02:28:00;;;;;;;4.82;4.38;;;20.40;78.20;;;;;;5034222;28;20029;-25
2022/08/19 02:30:25;;;;;;;5.72;5.10;;;20.40;78.20;;;;;;5034459;28;20022;-25
2022/08/19 02:32:52;;;;;;;6.30;5.20;;;20.30;78.30;;;;;;5032908;28;20052;-26
2022/08/19 02:35:19;;;;;;;6.88;5.18;;;20.30;78.40;;;;;;5034312;28;20029;-25
2022/08/19 02:40:34;;;;;;;6.15;5.55;;;20.20;78.40;;;;;;5034462;28;20051;-27
2022/08/19 02:43:06;;;;;;;5.55;5.00;;;20.20;78.50;;;;;;5034133;28;20108;-26
2022/08/19 02:45:34;;;;;;;5.67;5.10;;;20.20;78.60;;;;;;5034050;28;20054;-27
2022/08/19 02:47:59;;;;;;;8.27;5.72;;;20.10;78.60;;;;;;5034177;28;20022;-26
2022/08/19 02:50:25;;;;;;;5.95;5.45;;;20.10;78.80;;;;;;5034015;28;20446;-25
2022/08/19 02:52:51;;;;;;;6.65;5.90;;;20.00;78.80;;;;;;5033802;28;20103;-26
2022/08/19 02:55:16;;;;;;;6.18;5.57;;;20.00;78.90;;;;;;5033706;28;20024;-26
2022/08/19 02:57:42;;;;;;;6.68;6.03;;;20.00;78.90;;;;;;5033763;28;20453;-25
2022/08/19 03:00:11;;;;;;;6.70;5.85;;;20.00;78.90;;;;;;5032631;28;20048;-26
2022/08/19 03:02:37;;;;;;;6.20;5.60;;;20.00;79.00;;;;;;5032572;28;20465;-26
2022/08/19 03:05:04;;;;;;;6.55;5.95;;;19.90;78.90;;;;;;5033546;28;20049;-25
2022/08/19 03:07:30;;;;;;;8.18;6.28;;;19.90;78.90;;;;;;5033681;28;20033;-25
2022/08/19 03:09:56;;;;;;;5.95;5.43;;;19.90;78.90;;;;;;5033622;28;20029;-31
2022/08/19 03:12:21;;;;;;;6.25;5.68;;;19.90;78.90;;;;;;5033500;28;20036;-26
2022/08/19 03:14:47;;;;;;;6.55;5.95;;;19.90;79.00;;;;;;5033543;28;20029;-25
2022/08/19 03:17:13;;;;;;;7.13;5.90;;;19.80;79.00;;;;;;5033794;28;20022;-26
2022/08/19 03:19:39;;;;;;;6.38;5.78;;;19.80;79.10;;;;;;5033702;28;20354;-27
2022/08/19 03:22:04;;;;;;;6.63;5.75;;;19.80;79.20;;;;;;5033360;28;20481;-29
2022/08/19 03:24:31;;;;;;;6.57;5.93;;;19.80;79.20;;;;;;5033605;28;20115;-27
2022/08/19 03:26:58;;;;;;;6.65;5.72;;;19.80;79.30;;;;;;5033304;28;20084;-29
2022/08/19 03:29:28;;;;;;;6.93;5.60;;;19.70;79.20;;;;;;5033076;28;20041;-27
2022/08/19 03:31:54;;;;;;;5.90;5.30;;;19.70;79.30;;;;;;5033093;28;20021;-33
2022/08/19 03:34:26;;;;;;;6.05;5.45;;;19.70;79.40;;;;;;5032102;28;20026;-29
2022/08/19 03:36:54;;;;;;;5.85;5.18;;;19.60;79.40;;;;;;5032191;28;20032;-27
2022/08/19 03:39:20;;;;;;;8.45;5.68;;;19.60;79.40;;;;;;5033061;28;20022;-25
2022/08/19 03:41:49;;;;;;;6.15;5.55;;;19.60;79.50;;;;;;5033167;28;20033;-29
2022/08/19 03:44:20;;;;;;;5.93;5.32;;;19.60;79.50;;;;;;5033173;28;20079;-27
2022/08/19 03:46:48;;;;;;;5.85;5.28;;;19.60;79.60;;;;;;5033073;28;20469;-26
2022/08/19 03:49:15;;;;;;;6.47;5.82;;;19.50;79.60;;;;;;5033034;28;20021;-26
2022/08/19 03:51:42;;;;;;;6.63;5.55;;;19.50;79.70;;;;;;5032575;28;20032;-30
2022/08/19 03:54:10;;;;;;;6.57;5.90;;;19.50;79.70;;;;;;5032956;28;20112;-28
2022/08/19 03:56:37;;;;;;;6.65;5.95;;;19.40;79.70;;;;;;5032863;28;20101;-27
2022/08/19 03:59:04;;;;;;;6.40;5.80;;;19.40;79.80;;;;;;5032649;28;20030;-26
2022/08/19 04:01:30;;;;;;;6.65;5.95;;;19.40;79.80;;;;;;5032693;28;20032;-26
2022/08/19 04:03:57;;;;;;;7.03;6.32;;;19.40;79.80;;;;;;5032373;28;20041;-27
2022/08/19 04:06:29;;;;;;;7.53;6.72;;;19.40;79.90;;;;;;5032867;28;20037;-26
2022/08/19 04:08:57;;;;;;;7.18;6.35;;;19.40;80.00;;;;;;5032509;28;20036;-25
2022/08/19 04:11:29;;;;;;;6.90;6.15;;;19.40;80.00;;;;;;5031134;28;20040;-33
2022/08/19 04:13:56;;;;;;;7.45;6.10;;;19.40;80.10;;;;;;5032439;28;20017;-24
2022/08/19 04:16:28;;;;;;;6.85;6.25;;;19.40;80.10;;;;;;5032722;28;20021;-27
2022/08/19 04:18:54;;;;;;;7.13;6.50;;;19.40;80.20;;;;;;5032374;28;20473;-29
2022/08/19 04:21:22;;;;;;;6.70;6.10;;;19.40;80.30;;;;;;5031029;28;20108;-36
2022/08/19 04:23:48;;;;;;;7.63;6.47;;;19.30;80.30;;;;;;5032359;28;20385;-27
2022/08/19 04:26:16;;;;;;;7.35;6.50;;;19.30;80.40;;;;;;5032187;28;20029;-26
2022/08/19 04:28:43;;;;;;;7.43;6.40;;;19.20;80.40;;;;;;5032382;28;20108;-25
2022/08/19 04:31:14;;;;;;;8.15;6.47;;;19.20;80.50;;;;;;5032451;28;20025;-28
2022/08/19 04:33:41;;;;;;;6.28;5.68;;;19.20;80.60;;;;;;5032538;28;20033;-26
2022/08/19 04:36:07;;;;;;;8.32;6.18;;;19.20;80.60;;;;;;5032363;28;20024;-26
2022/08/19 04:38:33;;;;;;;6.68;5.97;;;19.20;80.60;;;;;;5032364;28;20046;-25
2022/08/19 04:43:48;;;;;;;7.65;6.13;;;19.10;80.60;;;;;;5036387;28;20041;-25
2022/08/19 04:46:14;;;;;;;7.18;6.47;;;19.10;80.60;;;;;;5036484;28;20026;-25
2022/08/19 04:48:40;;;;;;;6.85;6.15;;;19.10;80.60;;;;;;5036116;28;20120;-26
2022/08/19 04:51:09;;;;;;;6.25;5.65;;;19.10;80.60;;;;;;5036326;28;20109;-26
2022/08/19 04:53:37;;;;;;;7.45;6.75;;;19.10;80.70;;;;;;5036036;28;20033;-26
2022/08/19 04:56:17;;;;;;;7.05;6.32;;;19.10;80.70;;;;;;5036100;28;20053;-25
2022/08/19 04:58:43;;;;;;;7.43;6.72;;;19.10;80.80;;;;;;5036282;28;20405;-26
2022/08/19 05:01:13;;;;;;;8.40;7.30;;;19.10;80.70;;;;;;5034626;28;20021;-29
2022/08/19 05:03:39;;;;;;;8.02;6.93;;;19.10;80.80;;;;;;5035804;28;20109;-27
2022/08/19 05:06:11;;;;;;;8.75;6.55;;;19.10;80.90;;;;;;5036321;28;20537;-27
2022/08/19 05:08:41;;;;;;;8.43;7.00;;;19.10;80.90;;;;;;5036073;28;20040;-26
2022/08/19 05:11:16;;;;;;;7.82;6.78;;;19.00;80.90;;;;;;5036046;28;20018;-26
2022/08/19 05:13:43;;;;;;;7.68;6.88;;;19.00;81.00;;;;;;5036030;28;20060;-26
2022/08/19 05:16:09;;;;;;;7.88;7.15;;;19.00;81.00;;;;;;5035959;28;20358;-25
2022/08/19 05:24:08;;;;;;;8.75;7.93;;;19.10;81.10;;;;;;5035792;28;20064;-26
2022/08/19 05:26:35;;;;;;;8.95;8.05;;;19.10;81.10;;;;;;5034140;28;20028;-25
2022/08/19 05:29:01;;;;;;;9.20;8.30;;;19.20;81.20;;;;;;5035806;28;20048;-27
2022/08/19 05:31:27;;;;;;;9.13;8.30;;;19.20;81.20;;;;;;5035978;28;20022;-23
2022/08/19 05:33:53;;;;;;;9.20;8.15;;;19.20;81.20;;;;;;5035613;28;20465;-25
2022/08/19 05:36:19;;;;;;;8.95;7.88;;;19.30;81.30;;;;;;5035659;28;20030;-26
2022/08/19 05:38:47;;;;;;;8.95;7.32;;;19.30;81.20;;;;;;5035585;28;20028;-26
2022/08/19 05:41:14;;;;;;;8.73;7.90;;;19.30;81.10;;;;;;5035698;28;20118;-26
2022/08/19 05:43:40;;;;;;;9.63;8.63;;;19.40;81.10;;;;;;5035424;28;20029;-25
2022/08/19 05:46:07;;;;;;;9.43;8.43;;;19.40;81.10;;;;;;5035121;28;20366;-26
2022/08/19 05:48:34;;;;;;;9.52;8.52;;;19.50;81.10;;;;;;5035059;28;20028;-26
2022/08/19 05:51:05;;;;;;;9.43;8.23;;;19.50;81.10;;;;;;5034766;28;20036;-25
2022/08/19 05:53:31;;;;;;;9.68;8.73;;;19.50;81.00;;;;;;5035108;28;20395;-26
2022/08/19 05:55:57;;;;;;;10.90;9.40;;;19.50;81.00;;;;;;5035130;28;20021;-27
2022/08/19 05:58:23;;;;;;;11.43;10.20;;;19.60;81.00;;;;;;5035082;28;20466;-26
2022/08/19 06:00:49;;;;;;;11.73;10.52;;;19.60;81.00;;;;;;5034764;28;20045;-27
2022/08/19 06:03:14;;;;;;;12.18;10.52;;;19.70;81.10;;;;;;5034832;28;20049;-26
2022/08/19 06:05:41;;;;;;;12.00;10.80;;;19.70;81.10;;;;;;5034606;28;20046;-26
2022/08/19 06:08:07;;;;;;;11.90;10.68;;;19.70;81.10;;;;;;5035033;28;20034;-26
2022/08/19 06:10:32;;;;;;;12.68;11.38;;;19.80;81.30;;;;;;5035292;28;20033;-29
2022/08/19 06:12:58;;;;;;;10.82;9.55;;;19.80;81.30;;;;;;5034739;28;20025;-26
2022/08/19 06:15:25;;;;;;;11.70;10.57;;;19.80;81.20;;;;;;5034761;28;20105;-34
2022/08/19 06:17:51;;;;;;;11.38;10.27;;;19.90;81.30;;;;;;5034729;28;20075;-27
2022/08/19 06:20:17;;;;;;;11.93;10.73;;;19.90;81.30;;;;;;5034989;28;20033;-31
2022/08/19 06:22:45;;;;;;;12.52;11.25;;;19.90;81.40;;;;;;5035079;28;20326;-27
2022/08/19 06:25:12;;;;;;;12.30;11.10;;;20.00;81.60;;;;;;5034538;28;20026;-25
2022/08/19 06:27:39;;;;;;;12.75;10.35;;;20.00;81.70;;;;;;5033040;28;20029;-25
2022/08/19 06:30:05;;;;;;;12.27;11.05;;;20.00;81.70;;;;;;5033153;28;20381;-25
2022/08/19 06:32:31;;;;;;;12.82;11.52;;;20.00;81.70;;;;;;5033155;28;20033;-25
2022/08/19 06:34:56;;;;;;;13.20;11.82;;;20.00;81.80;;;;;;5034316;28;20029;-27
2022/08/19 06:37:22;;;;;;;11.90;10.68;;;20.10;81.90;;;;;;5034405;28;20370;-26
2022/08/19 06:39:48;;;;;;;13.20;11.10;;;20.10;81.90;;;;;;5034196;28;20017;-25
2022/08/19 06:42:16;;;;;;;14.60;12.38;;;20.10;81.80;;;;;;5034142;28;20036;-25
2022/08/19 06:44:45;;;;;;;13.50;12.07;;;20.20;81.90;;;;;;5034455;28;20466;-25
2022/08/19 06:47:13;;;;;;;14.68;12.73;;;20.20;81.90;;;;;;5034429;28;20465;-25
2022/08/19 06:49:39;;;;;;;17.08;13.20;;;20.30;82.00;;;;;;5033963;28;20091;-25
2022/08/19 06:52:05;;;;;;;17.75;14.50;;;20.30;82.00;;;;;;5034307;28;20030;-26
2022/08/19 06:54:31;;;;;;;16.70;13.25;;;20.40;81.90;;;;;;5033938;28;20388;-25
2022/08/19 06:57:01;;;;;;;17.33;14.68;;;20.50;81.70;;;;;;5034060;28;20109;-27
2022/08/19 06:59:28;;;;;;;23.90;17.73;;;20.60;81.50;;;;;;5034098;28;20018;-30
2022/08/19 07:01:56;;;;;;;26.05;18.23;;;20.70;81.50;;;;;;5033727;28;20052;-25
2022/08/19 07:04:24;;;;;;;22.70;16.25;;;20.80;81.50;;;;;;5033218;28;20052;-28
2022/08/19 07:06:55;;;;;;;22.92;17.23;;;20.80;81.40;;;;;;5033984;28;20025;-25
2022/08/19 07:09:21;;;;;;;31.10;19.77;;;20.90;81.30;;;;;;5033764;28;20108;-26
2022/08/19 07:11:49;;;;;;;34.53;22.33;;;21.00;81.30;;;;;;5033586;28;20469;-27
2022/08/19 07:14:17;;;;;;;40.83;24.92;;;21.00;81.10;;;;;;5033742;28;20104;-29
2022/08/19 07:16:45;;;;;;;48.55;28.50;;;21.00;81.00;;;;;;5033974;28;20022;-26
2022/08/19 07:19:12;;;;;;;49.92;30.33;;;21.00;81.00;;;;;;5033679;28;20485;-26
2022/08/19 07:21:38;;;;;;;46.85;28.80;;;21.00;81.10;;;;;;5033491;28;20108;-26
2022/08/19 07:24:04;;;;;;;42.97;27.20;;;20.90;81.30;;;;;;5033636;28;20040;-27
2022/08/19 07:26:32;;;;;;;42.40;26.05;;;20.90;81.30;;;;;;5032165;28;20060;-27
2022/08/19 07:29:00;;;;;;;44.08;26.17;;;21.00;81.20;;;;;;5033272;28;20036;-26
2022/08/19 07:31:28;;;;;;;40.85;26.40;;;21.10;80.90;;;;;;5033047;28;20075;-27
2022/08/19 07:33:56;;;;;;;41.00;26.42;;;21.10;80.70;;;;;;5033711;28;20024;-26
2022/08/19 07:36:30;;;;;;;39.25;26.70;;;21.20;81.10;;;;;;5033685;28;20013;-27
2022/08/19 07:38:56;;;;;;;39.75;25.70;;;21.30;80.30;;;;;;5033470;28;20030;-26
2022/08/19 07:41:25;;;;;;;38.67;26.92;;;21.40;80.00;;;;;;5033410;28;20068;-25
2022/08/19 07:43:52;;;;;;;41.25;27.38;;;21.40;79.70;;;;;;5033480;28;20022;-25
2022/08/19 07:46:20;;;;;;;34.80;24.23;;;21.50;79.50;;;;;;5033362;28;20449;-27
2022/08/19 07:48:47;;;;;;;40.75;26.88;;;21.60;79.40;;;;;;5032145;28;20021;-27
2022/08/19 07:51:15;;;;;;;37.50;25.77;;;21.60;79.20;;;;;;5033564;28;20018;-26
2022/08/19 07:53:41;;;;;;;38.97;28.40;;;21.70;79.00;;;;;;5033322;28;20044;-27
2022/08/19 07:56:07;;;;;;;43.53;30.52;;;21.70;78.70;;;;;;5033610;28;20025;-24
2022/08/19 07:58:38;;;;;;;47.90;32.97;;;21.80;78.50;;;;;;5033159;28;20382;-26
2022/08/19 08:01:06;;;;;;;47.97;33.13;;;21.80;78.30;;;;;;5033499;28;20389;-27
2022/08/19 08:09:20;;;;;;;41.35;29.27;;;21.90;78.10;;;;;;5032907;28;20044;-26
2022/08/19 08:12:14;;;;;;;38.20;27.08;;;22.00;77.90;;;;;;5032388;28;20034;-27
2022/08/19 08:14:49;;;;;;;34.20;26.70;;;22.10;77.50;;;;;;5032640;28;20417;-26
2022/08/19 08:17:17;;;;;;;38.58;29.10;;;22.20;77.30;;;;;;5032518;28;20026;-26
2022/08/19 08:19:44;;;;;;;34.25;26.52;;;22.30;77.10;;;;;;5032644;28;20047;-28
2022/08/19 08:23:21;;;;;;;37.42;28.17;;;22.40;76.80;;;;;;5033260;28;20033;-29
2022/08/19 08:24:59;;;;;;;34.22;27.25;;;22.50;76.60;;;;;;5032407;28;20045;-26
2022/08/19 08:27:28;;;;;;;38.05;29.83;;;22.40;76.40;;;;;;5032409;28;20036;-26
2022/08/19 08:29:54;;;;;;;37.00;29.98;;;22.20;76.30;;;;;;5032407;28;20028;-25
2022/08/19 08:32:20;;;;;;;38.88;30.38;;;22.10;76.40;;;;;;5031095;28;20030;-25
2022/08/19 08:34:45;;;;;;;34.67;27.75;;;22.00;76.60;;;;;;5032380;28;20022;-26
2022/08/19 08:37:11;;;;;;;38.63;28.52;;;21.90;76.90;;;;;;5032747;28;20079;-28
2022/08/19 08:39:36;;;;;;;37.88;29.15;;;21.90;77.00;;;;;;5032348;28;20014;-27
2022/08/19 08:42:21;;;;;;;33.30;27.73;;;21.80;77.00;;;;;;5032306;28;20028;-26
2022/08/19 08:44:58;;;;;;;33.92;26.38;;;21.80;77.10;;;;;;5032423;28;20108;-26
2022/08/19 08:47:26;;;;;;;31.65;24.95;;;21.90;77.10;;;;;;5032590;28;20481;-27
2022/08/19 08:50:05;;;;;;;30.00;22.45;;;21.90;76.90;;;;;;5032233;28;20033;-27
2022/08/19 08:52:35;;;;;;;28.65;21.70;;;22.00;76.70;;;;;;5032444;28;20389;-26
2022/08/19 08:55:08;;;;;;;24.63;19.33;;;22.00;76.30;;;;;;5032515;28;20022;-30
2022/08/19 08:57:59;;;;;;;26.13;18.88;;;22.10;75.90;;;;;;5032450;28;20029;-28
2022/08/19 09:00:32;;;;;;;23.95;18.83;;;22.10;75.40;;;;;;5030704;28;20040;-26
2022/08/19 09:03:03;;;;;;;24.55;20.60;;;22.20;75.00;;;;;;5032605;28;20029;-25
2022/08/19 09:05:57;;;;;;;27.40;21.77;;;22.20;74.70;;;;;;5032311;28;20420;-25
2022/08/19 09:08:29;;;;;;;23.10;18.02;;;22.20;74.30;;;;;;5032120;28;20018;-27
2022/08/19 09:10:57;;;;;;;24.42;18.50;;;22.30;74.30;;;;;;5032481;28;20537;-27
2022/08/19 09:14:13;;;;;;;23.88;18.90;;;22.30;74.20;;;;;;5032156;28;20029;-43
2022/08/19 09:16:40;;;;;;;27.27;20.10;;;22.40;74.00;;;;;;4971025;28;20106;-43
2022/08/19 09:19:07;;;;;;;23.38;17.60;;;22.50;73.60;;;;;;5014677;28;20120;-43
2022/08/19 09:21:34;;;;;;;24.50;19.17;;;22.50;73.50;;;;;;5031902;28;20039;-43
2022/08/19 09:24:00;;;;;;;22.30;17.42;;;22.60;73.30;;;;;;5031753;28;20075;-44
2022/08/19 09:26:26;;;;;;;22.42;17.95;;;22.60;73.30;;;;;;5033083;28;20076;-43
2022/08/19 09:28:53;;;;;;;25.10;19.92;;;22.70;73.30;;;;;;5035426;28;20424;-33
2022/08/19 09:31:25;;;;;;;26.00;19.88;;;22.70;73.20;;;;;;5035456;28;20104;-42
2022/08/19 09:33:52;;;;;;;25.38;19.60;;;22.80;73.00;;;;;;5035485;28;20025;-29
2022/08/19 09:36:22;;;;;;;21.42;17.17;;;22.80;72.70;;;;;;5035400;28;20027;-28
2022/08/19 09:38:47;;;;;;;23.80;18.55;;;23.00;72.60;;;;;;5035645;28;20018;-29
2022/08/19 09:41:16;;;;;;;26.58;18.35;;;23.10;72.50;;;;;;5033990;28;20072;-28
2022/08/19 09:43:45;;;;;;;26.35;19.65;;;23.10;72.30;;;;;;5035466;28;20049;-28
2022/08/19 09:46:12;;;;;;;24.98;19.83;;;23.10;72.20;;;;;;5035695;28;20069;-25
2022/08/19 09:48:40;;;;;;;24.52;19.30;;;23.10;72.40;;;;;;5035186;28;20030;-25
2022/08/19 09:51:17;;;;;;;23.27;18.13;;;23.10;72.40;;;;;;5035535;28;20021;-25
2022/08/19 09:53:49;;;;;;;27.40;19.02;;;23.10;72.40;;;;;;5035455;28;20430;-26
2022/08/19 09:56:15;;;;;;;22.63;16.77;;;23.10;72.00;;;;;;5035357;28;20049;-26
2022/08/19 09:58:41;;;;;;;24.35;19.33;;;23.10;72.10;;;;;;5035389;28;20026;-27
2022/08/19 10:01:07;;;;;;;24.80;19.38;;;23.10;71.90;;;;;;5035969;28;20021;-25
2022/08/19 10:03:34;;;;;;;28.83;18.73;;;23.00;71.70;;;;;;5035326;28;20087;-25
2022/08/19 10:06:02;;;;;;;24.58;16.75;;;23.00;71.70;;;;;;5035203;28;20148;-24
2022/08/19 10:08:31;;;;;;;21.60;16.98;;;22.90;71.60;;;;;;5035184;28;20021;-26
2022/08/19 10:10:57;;;;;;;21.60;16.35;;;22.90;71.70;;;;;;5034959;28;20025;-26
2022/08/19 10:13:25;;;;;;;19.13;14.63;;;22.80;71.40;;;;;;5034908;28;20041;-25
2022/08/19 10:15:54;;;;;;;20.02;15.00;;;22.80;71.60;;;;;;5034577;28;20053;-28
2022/08/19 10:18:21;;;;;;;20.80;14.63;;;22.90;71.50;;;;;;5034574;28;20096;-43
2022/08/19 10:20:48;;;;;;;17.50;13.73;;;22.90;71.10;;;;;;5034433;28;20388;-37
2022/08/19 10:23:15;;;;;;;18.42;13.68;;;23.00;70.90;;;;;;5034663;28;20112;-35
2022/08/19 10:25:42;;;;;;;19.20;14.15;;;23.00;70.50;;;;;;5034709;28;20033;-35
2022/08/19 10:28:08;;;;;;;19.15;14.75;;;23.00;70.30;;;;;;5034643;28;20030;-35
2022/08/19 10:30:35;;;;;;;21.90;16.55;;;23.10;70.20;;;;;;5034472;28;20033;-35
2022/08/19 10:33:01;;;;;;;22.90;16.98;;;23.10;70.10;;;;;;5034253;28;20397;-35
2022/08/19 10:35:29;;;;;;;19.05;14.27;;;23.10;70.00;;;;;;5034205;28;20086;-35
2022/08/19 10:37:59;;;;;;;17.73;13.80;;;23.10;70.10;;;;;;5033323;28;20380;-35
2022/08/19 10:40:26;;;;;;;18.60;13.70;;;23.10;70.10;;;;;;5034226;28;20033;-35
2022/08/19 10:42:53;;;;;;;20.73;14.30;;;23.20;70.00;;;;;;5034127;28;20543;-35
2022/08/19 10:45:23;;;;;;;21.10;15.73;;;23.30;69.90;;;;;;5034351;28;20044;-35
2022/08/19 10:47:48;;;;;;;19.42;14.15;;;23.40;69.80;;;;;;5034391;28;20090;-35
2022/08/19 10:53:04;;;;;;;20.65;14.95;;;23.40;69.70;;;;;;5034013;28;20087;-36
2022/08/19 10:58:21;;;;;;;18.85;13.50;;;23.50;69.10;;;;;;5034258;28;20052;-35
2022/08/19 11:00:56;;;;;;;17.52;13.82;;;23.50;69.10;;;;;;5034139;28;20067;-35
2022/08/19 11:03:23;;;;;;;21.35;16.02;;;23.50;69.10;;;;;;5034814;28;20477;-36
2022/08/19 11:06:03;;;;;;;20.42;15.10;;;23.60;68.70;;;;;;5032348;28;20167;-34
2022/08/19 11:08:30;;;;;;;17.40;13.77;;;23.60;68.50;;;;;;5033964;28;20017;-35
2022/08/19 11:11:00;;;;;;;18.95;14.48;;;23.70;68.50;;;;;;5032578;28;20025;-35
2022/08/19 11:13:30;;;;;;;16.52;13.38;;;23.70;68.40;;;;;;5033955;28;20029;-36
2022/08/19 11:16:01;;;;;;;19.85;15.20;;;23.80;68.30;;;;;;5034037;28;20035;-35
2022/08/19 11:18:27;;;;;;;17.70;14.02;;;23.90;67.70;;;;;;5033491;28;20025;-36
2022/08/19 11:20:52;;;;;;;20.63;14.57;;;23.90;67.50;;;;;;5033944;28;20029;-36
2022/08/19 11:23:18;;;;;;;16.80;13.23;;;23.90;67.40;;;;;;5033840;28;20492;-36
2022/08/19 11:25:45;;;;;;;21.58;13.77;;;24.00;68.10;;;;;;5034106;28;20441;-37
2022/08/19 11:28:11;;;;;;;18.60;13.93;;;24.00;67.20;;;;;;5032296;28;20033;-35
2022/08/19 11:30:38;;;;;;;17.85;13.57;;;24.10;66.90;;;;;;5033623;28;20029;-35
2022/08/19 11:33:04;;;;;;;16.75;12.40;;;24.10;66.80;;;;;;5032058;28;20061;-36
2022/08/19 11:35:30;;;;;;;14.10;11.18;;;24.10;66.80;;;;;;5033302;28;20069;-35
2022/08/19 11:37:57;;;;;;;14.93;11.20;;;24.20;66.70;;;;;;5033366;28;20043;-36
2022/08/19 11:40:23;;;;;;;13.50;10.93;;;24.30;66.30;;;;;;5033511;28;20525;-36
2022/08/19 11:42:55;;;;;;;13.80;10.15;;;24.30;66.10;;;;;;5032182;28;20033;-36
2022/08/19 11:45:22;;;;;;;11.95;10.65;;;24.30;66.10;;;;;;5033457;28;20082;-37
2022/08/19 11:47:48;;;;;;;11.23;9.23;;;24.40;66.00;;;;;;5033365;28;20032;-37
2022/08/19 11:50:14;;;;;;;10.48;8.60;;;24.40;65.90;;;;;;5033118;28;20033;-37
2022/08/19 11:52:40;;;;;;;11.40;9.02;;;24.50;65.90;;;;;;5033214;28;20036;-37
2022/08/19 11:55:07;;;;;;;14.60;9.85;;;24.60;65.70;;;;;;5033287;28;20418;-43
2022/08/19 11:57:35;;;;;;;14.25;10.50;;;24.70;65.40;;;;;;5033138;28;20389;-37
2022/08/19 12:00:03;;;;;;;10.07;8.98;;;24.70;65.20;;;;;;5033402;28;20025;-37
2022/08/19 12:02:29;;;;;;;12.77;10.30;;;24.80;64.90;;;;;;5031729;28;20469;-37
2022/08/19 12:04:55;;;;;;;16.50;10.93;;;24.80;64.60;;;;;;5031736;28;20056;-37
2022/08/19 12:07:21;;;;;;;12.30;9.07;;;24.80;64.20;;;;;;5033114;28;20030;-36
2022/08/19 12:09:47;;;;;;;12.75;9.70;;;24.80;64.30;;;;;;5033275;28;20079;-46
2022/08/19 12:12:13;;;;;;;11.98;9.23;;;24.90;64.40;;;;;;5033176;28;20025;-37
2022/08/19 12:14:38;;;;;;;12.50;9.52;;;24.90;64.40;;;;;;5032166;28;20116;-38
2022/08/19 12:17:07;;;;;;;11.82;9.27;;;25.00;64.20;;;;;;5033212;28;20447;-36
2022/08/19 12:19:33;;;;;;;11.35;8.73;;;25.10;64.00;;;;;;5033171;28;20548;-36
2022/08/19 12:22:01;;;;;;;10.45;9.15;;;25.30;64.00;;;;;;5033099;28;20057;-37
2022/08/19 12:24:27;;;;;;;15.68;12.50;;;25.40;63.90;;;;;;5033137;28;20086;-36
2022/08/19 12:26:55;;;;;;;13.68;11.90;;;25.50;63.30;;;;;;5032992;28;20108;-36
2022/08/19 12:29:21;;;;;;;10.63;9.55;;;25.60;63.20;;;;;;5033123;28;20535;-35
2022/08/19 12:31:47;;;;;;;10.90;9.80;;;25.60;63.50;;;;;;5032805;28;20400;-36
2022/08/19 12:34:12;;;;;;;12.30;10.27;;;25.70;63.50;;;;;;5032855;28;20021;-37
2022/08/19 12:36:39;;;;;;;15.23;11.63;;;25.90;63.40;;;;;;5032752;28;20022;-35
2022/08/19 12:39:06;;;;;;;16.52;13.40;;;26.00;63.30;;;;;;5033018;28;20112;-37
2022/08/19 12:41:31;;;;;;;12.85;11.23;;;26.00;62.80;;;;;;5033009;28;20052;-38
2022/08/19 12:43:58;;;;;;;15.38;13.07;;;26.00;62.80;;;;;;5032901;28;20481;-35
2022/08/19 12:46:23;;;;;;;13.57;11.05;;;26.00;62.80;;;;;;5032704;28;20495;-36
2022/08/19 12:48:49;;;;;;;14.75;11.27;;;26.00;63.00;;;;;;5032400;28;20021;-36
2022/08/19 12:51:19;;;;;;;12.15;10.52;;;26.00;63.10;;;;;;5031414;28;20026;-35
2022/08/19 12:53:46;;;;;;;11.15;9.98;;;26.10;63.00;;;;;;5033126;28;20033;-35
2022/08/19 12:56:14;;;;;;;16.13;12.32;;;26.20;63.00;;;;;;5031521;28;20029;-36
2022/08/19 12:58:41;;;;;;;13.25;11.82;;;26.30;62.50;;;;;;5032815;28;20025;-35
2022/08/19 13:01:10;;;;;;;13.60;11.02;;;26.30;62.60;;;;;;5033611;28;20056;-35